LBSF/SOF METAR and TAF weather

Enter ICAO airport designator
Station Type Date Time Source
LBSF METAR 2019/02/17 07:30 UTC NOAA

LBSF 170730Z VRB02KT 5000 BR NSC M01/M03 Q1028 NOSIG


Station Type Date Time Source
LBSF Decoded METAR 2019/02/17 07:30 UTC NOAA

Sofia Observ. , Bulgaria (LBSF) 42-39N 023-23E 595M
Feb 17, 2019 - 02:30 AM EST / 2019.02.17 0730 UTC
Wind: Variable at 2 MPH (2 KT):0
Visibility: 3 mile(s):0
Weather: mist
Temperature: 30 F (-1 C)
Dew Point: 26 F (-3 C)
Relative Humidity: 86%
Pressure (altimeter): 30.36 in. Hg (1028 hPa)
ob: LBSF 170730Z VRB02KT 5000 BR NSC M01/M03 Q1028 NOSIG
cycle: 7

Station Type Date Time Source
LBSF TAF 2019/02/17 06:18 UTC NOAA

TAF LBSF 170500Z 1706/1806 VRB04KT 4000 BR SCT010
BECMG 1707/1709 CAVOK
BECMG 1700/1702 5000 BR
TEMPO 1803/1806 3000 BR


Example: see airport list